sensor_id;sensor_type;location;lat;lon;timestamp;pressure;altitude;pressure_sealevel;temperature;humidity
5126;BME280;63008;53.112;8.896;2023-05-24T00:01:14;102096.56;;;9.41;85.33
5126;BME280;63008;53.112;8.896;2023-05-24T00:03:16;102104.78;;;9.41;85.06
5126;BME280;63008;53.112;8.896;2023-05-24T00:05:18;102097.38;;;9.41;84.88
5126;BME280;63008;53.112;8.896;2023-05-24T00:07:19;102096.56;;;9.41;84.93
5126;BME280;63008;53.112;8.896;2023-05-24T00:09:20;102097.16;;;9.38;85.20
5126;BME280;63008;53.112;8.896;2023-05-24T00:11:21;102090.28;;;9.40;85.28
5126;BME280;63008;53.112;8.896;2023-05-24T00:13:22;102087.53;;;9.40;85.12
5126;BME280;63008;53.112;8.896;2023-05-24T00:15:23;102092.84;;;9.32;85.10
5126;BME280;63008;53.112;8.896;2023-05-24T00:17:24;102086.84;;;9.30;85.67
5126;BME280;63008;53.112;8.896;2023-05-24T00:19:25;102092.78;;;9.37;85.61
5126;BME280;63008;53.112;8.896;2023-05-24T00:21:27;102089.28;;;9.31;85.67
5126;BME280;63008;53.112;8.896;2023-05-24T00:23:28;102097.22;;;9.33;85.10
5126;BME280;63008;53.112;8.896;2023-05-24T00:25:29;102090.28;;;9.40;85.01
5126;BME280;63008;53.112;8.896;2023-05-24T00:27:30;102092.66;;;9.47;84.73
5126;BME280;63008;53.112;8.896;2023-05-24T00:29:31;102086.88;;;9.48;84.22
5126;BME280;63008;53.112;8.896;2023-05-24T00:31:32;102084.97;;;9.49;84.26
5126;BME280;63008;53.112;8.896;2023-05-24T00:33:33;102083.97;;;9.40;84.33
5126;BME280;63008;53.112;8.896;2023-05-24T00:35:34;102075.34;;;9.51;84.34
5126;BME280;63008;53.112;8.896;2023-05-24T00:37:35;102082.47;;;9.52;84.27
5126;BME280;63008;53.112;8.896;2023-05-24T00:39:37;102074.25;;;9.52;84.14
5126;BME280;63008;53.112;8.896;2023-05-24T00:41:38;102075.88;;;9.53;84.17
5126;BME280;63008;53.112;8.896;2023-05-24T00:43:39;102075.34;;;9.51;84.71
5126;BME280;63008;53.112;8.896;2023-05-24T00:45:42;102064.91;;;9.53;84.44
5126;BME280;63008;53.112;8.896;2023-05-24T00:47:44;102064.84;;;9.58;84.14
5126;BME280;63008;53.112;8.896;2023-05-24T00:49:45;102060.53;;;9.52;84.42
5126;BME280;63008;53.112;8.896;2023-05-24T00:51:47;102066.03;;;9.52;84.64
5126;BME280;63008;53.112;8.896;2023-05-24T00:53:48;102066.53;;;9.54;84.44
5126;BME280;63008;53.112;8.896;2023-05-24T00:55:49;102068.97;;;9.56;84.65
5126;BME280;63008;53.112;8.896;2023-05-24T00:57:51;102061.56;;;9.56;84.44
5126;BME280;63008;53.112;8.896;2023-05-24T00:59:52;102062.59;;;9.60;84.17
5126;BME280;63008;53.112;8.896;2023-05-24T01:01:55;102070.59;;;9.57;84.33
5126;BME280;63008;53.112;8.896;2023-05-24T01:03:56;102061.50;;;9.61;84.24
5126;BME280;63008;53.112;8.896;2023-05-24T01:06:00;102069.72;;;9.61;84.33
5126;BME280;63008;53.112;8.896;2023-05-24T01:08:31;102065.44;;;9.55;84.11
5126;BME280;63008;53.112;8.896;2023-05-24T01:10:52;102066.38;;;9.64;84.07
5126;BME280;63008;53.112;8.896;2023-05-24T01:18:01;102062.09;;;9.58;84.10
5126;BME280;63008;53.112;8.896;2023-05-24T01:20:08;102057.72;;;9.57;83.96
5126;BME280;63008;53.112;8.896;2023-05-24T01:24:54;102064.25;;;9.61;84.35
5126;BME280;63008;53.112;8.896;2023-05-24T01:27:09;102060.16;;;9.59;83.99
5126;BME280;63008;53.112;8.896;2023-05-24T01:29:12;102060.16;;;9.59;83.86
5126;BME280;63008;53.112;8.896;2023-05-24T01:31:14;102060.09;;;9.64;83.62
5126;BME280;63008;53.112;8.896;2023-05-24T01:33:16;102066.34;;;9.69;83.43
5126;BME280;63008;53.112;8.896;2023-05-24T01:35:17;102063.03;;;9.67;83.65
5126;BME280;63008;53.112;8.896;2023-05-24T01:37:18;102054.91;;;9.62;83.82
5126;BME280;63008;53.112;8.896;2023-05-24T01:39:20;102060.09;;;9.64;83.98
5126;BME280;63008;53.112;8.896;2023-05-24T01:41:39;102047.78;;;9.61;83.99
5126;BME280;63008;53.112;8.896;2023-05-24T01:43:51;102054.31;;;9.65;83.92
5126;BME280;63008;53.112;8.896;2023-05-24T01:46:21;102044.94;;;9.71;83.89
5126;BME280;63008;53.112;8.896;2023-05-24T01:50:31;102051.34;;;9.80;82.71
5126;BME280;63008;53.112;8.896;2023-05-24T01:52:33;102045.13;;;9.75;82.83
5126;BME280;63008;53.112;8.896;2023-05-24T01:54:37;102050.84;;;9.78;82.32
5126;BME280;63008;53.112;8.896;2023-05-24T01:56:39;102046.97;;;9.79;82.70
5126;BME280;63008;53.112;8.896;2023-05-24T01:58:42;102052.22;;;9.76;82.51
5126;BME280;63008;53.112;8.896;2023-05-24T02:00:44;102046.97;;;9.79;82.46
5126;BME280;63008;53.112;8.896;2023-05-24T02:02:45;102049.72;;;9.79;82.49
5126;BME280;63008;53.112;8.896;2023-05-24T02:04:46;102045.72;;;9.72;82.73
5126;BME280;63008;53.112;8.896;2023-05-24T02:06:47;102044.84;;;9.76;82.60
5126;BME280;63008;53.112;8.896;2023-05-24T02:08:48;102048.94;;;9.79;83.01
5126;BME280;63008;53.112;8.896;2023-05-24T02:10:49;102045.34;;;9.78;82.98
5126;BME280;63008;53.112;8.896;2023-05-24T02:12:50;102042.69;;;9.73;83.08
5126;BME280;63008;53.112;8.896;2023-05-24T02:14:51;102046.84;;;9.71;82.90
5126;BME280;63008;53.112;8.896;2023-05-24T02:16:52;102039.50;;;9.66;83.47
5126;BME280;63008;53.112;8.896;2023-05-24T02:18:58;102038.25;;;9.77;83.26
5126;BME280;63008;53.112;8.896;2023-05-24T02:21:00;102041.06;;;9.72;83.39
5126;BME280;63008;53.112;8.896;2023-05-24T02:23:03;102036.38;;;9.73;83.12
5126;BME280;63008;53.112;8.896;2023-05-24T02:25:04;102040.16;;;9.77;83.41
5126;BME280;63008;53.112;8.896;2023-05-24T02:27:05;102037.81;;;9.70;83.12
5126;BME280;63008;53.112;8.896;2023-05-24T02:29:06;102032.34;;;9.70;83.59
5126;BME280;63008;53.112;8.896;2023-05-24T02:31:08;102036.91;;;9.75;83.25
5126;BME280;63008;53.112;8.896;2023-05-24T02:33:09;102035.06;;;9.70;83.09
5126;BME280;63008;53.112;8.896;2023-05-24T02:35:11;102031.22;;;9.71;83.27
5126;BME280;63008;53.112;8.896;2023-05-24T02:37:12;102035.34;;;9.69;83.79
5126;BME280;63008;53.112;8.896;2023-05-24T02:39:16;102027.41;;;9.67;83.79
5126;BME280;63008;53.112;8.896;2023-05-24T02:41:17;102036.91;;;9.75;83.86
5126;BME280;63008;53.112;8.896;2023-05-24T02:43:19;102042.19;;;9.71;83.94
5126;BME280;63008;53.112;8.896;2023-05-24T02:45:20;102031.78;;;9.68;84.19
5126;BME280;63008;53.112;8.896;2023-05-24T02:47:20;102030.91;;;9.73;83.95
5126;BME280;63008;53.112;8.896;2023-05-24T02:49:21;102038.31;;;9.72;84.40
5126;BME280;63008;53.112;8.896;2023-05-24T02:51:22;102029.88;;;9.69;84.49
5126;BME280;63008;53.112;8.896;2023-05-24T02:53:23;102032.34;;;9.70;84.71
5126;BME280;63008;53.112;8.896;2023-05-24T02:55:24;102034.84;;;9.67;84.96
5126;BME280;63008;53.112;8.896;2023-05-24T02:57:26;102036.38;;;9.73;84.26
5126;BME280;63008;53.112;8.896;2023-05-24T02:59:28;102038.94;;;9.69;84.17
5126;BME280;63008;53.112;8.896;2023-05-24T03:01:29;102044.84;;;9.76;83.83
5126;BME280;63008;53.112;8.896;2023-05-24T03:03:30;102038.75;;;9.79;83.94
5126;BME280;63008;53.112;8.896;2023-05-24T03:05:31;102038.25;;;9.77;83.76
5126;BME280;63008;53.112;8.896;2023-05-24T03:09:35;102031.13;;;9.76;83.57
5126;BME280;63008;53.112;8.896;2023-05-24T03:11:36;102032.91;;;9.67;84.11
5126;BME280;63008;53.112;8.896;2023-05-24T03:13:37;102033.44;;;9.69;84.26
5126;BME280;63008;53.112;8.896;2023-05-24T03:15:38;102037.81;;;9.70;84.36
5126;BME280;63008;53.112;8.896;2023-05-24T03:17:39;102041.94;;;9.68;84.20
5126;BME280;63008;53.112;8.896;2023-05-24T03:19:40;102035.34;;;9.69;84.78
5126;BME280;63008;53.112;8.896;2023-05-24T03:21:42;102033.34;;;9.74;83.87
5126;BME280;63008;53.112;8.896;2023-05-24T03:23:43;102027.00;;;9.79;83.91
5126;BME280;63008;53.112;8.896;2023-05-24T03:25:44;102029.94;;;9.82;83.58
5126;BME280;63008;53.112;8.896;2023-05-24T03:27:45;102027.50;;;9.81;83.55
5126;BME280;63008;53.112;8.896;2023-05-24T03:29:46;102032.38;;;9.84;83.66
5126;BME280;63008;53.112;8.896;2023-05-24T03:31:47;102031.56;;;9.83;83.90
5126;BME280;63008;53.112;8.896;2023-05-24T03:33:48;102026.91;;;9.84;83.44
5126;BME280;63008;53.112;8.896;2023-05-24T03:35:49;102036.47;;;9.86;83.34
5126;BME280;63008;53.112;8.896;2023-05-24T03:37:50;102024.78;;;9.81;83.19
5126;BME280;63008;53.112;8.896;2023-05-24T03:39:51;102024.25;;;9.79;83.80
5126;BME280;63008;53.112;8.896;2023-05-24T03:41:52;102025.13;;;9.74;84.02
5126;BME280;63008;53.112;8.896;2023-05-24T03:43:53;102023.94;;;9.80;84.08
5126;BME280;63008;53.112;8.896;2023-05-24T03:45:54;102021.19;;;9.80;84.04
5126;BME280;63008;53.112;8.896;2023-05-24T03:47:55;102014.47;;;9.73;83.75
5126;BME280;63008;53.112;8.896;2023-05-24T03:49:56;102014.09;;;9.79;83.84
5126;BME280;63008;53.112;8.896;2023-05-24T03:51:57;102026.25;;;9.73;84.08
5126;BME280;63008;53.112;8.896;2023-05-24T03:53:58;102023.88;;;9.67;84.14
5126;BME280;63008;53.112;8.896;2023-05-24T03:55:59;102022.41;;;9.74;84.47
5126;BME280;63008;53.112;8.896;2023-05-24T03:58:00;102019.66;;;9.74;84.31
5126;BME280;63008;53.112;8.896;2023-05-24T04:00:01;102026.59;;;9.85;83.68
5126;BME280;63008;53.112;8.896;2023-05-24T04:02:03;102022.06;;;9.94;83.88
5126;BME280;63008;53.112;8.896;2023-05-24T04:04:04;102021.56;;;9.92;83.38
5126;BME280;63008;53.112;8.896;2023-05-24T04:06:05;102023.41;;;9.97;83.11
5126;BME280;63008;53.112;8.896;2023-05-24T04:08:06;102021.78;;;9.96;83.34
5126;BME280;63008;53.112;8.896;2023-05-24T04:10:07;102024.16;;;10.02;82.96
5126;BME280;63008;53.112;8.896;2023-05-24T04:12:08;102025.34;;;10.15;83.31
5126;BME280;63008;53.112;8.896;2023-05-24T04:14:09;102029.84;;;10.24;82.74
5126;BME280;63008;53.112;8.896;2023-05-24T04:16:10;102029.91;;;10.19;82.98
5126;BME280;63008;53.112;8.896;2023-05-24T04:18:16;102027.31;;;10.28;81.98
5126;BME280;63008;53.112;8.896;2023-05-24T04:20:17;102030.38;;;10.26;82.09
5126;BME280;63008;53.112;8.896;2023-05-24T04:22:18;102034.97;;;10.31;81.67
5126;BME280;63008;53.112;8.896;2023-05-24T04:24:19;102036.97;;;10.25;82.35
5126;BME280;63008;53.112;8.896;2023-05-24T04:26:20;102032.88;;;10.23;82.26
5126;BME280;63008;53.112;8.896;2023-05-24T04:28:22;102030.38;;;10.26;82.69
5126;BME280;63008;53.112;8.896;2023-05-24T04:30:23;102040.00;;;10.24;82.39
5126;BME280;63008;53.112;8.896;2023-05-24T04:32:24;102045.50;;;10.24;82.64
5126;BME280;63008;53.112;8.896;2023-05-24T04:34:27;102041.75;;;10.33;82.13
5126;BME280;63008;53.112;8.896;2023-05-24T04:36:29;102045.19;;;10.25;82.73
5126;BME280;63008;53.112;8.896;2023-05-24T04:38:31;102038.78;;;10.30;82.38
5126;BME280;63008;53.112;8.896;2023-05-24T04:40:34;102043.56;;;10.24;83.07
5126;BME280;63008;53.112;8.896;2023-05-24T04:42:35;102044.00;;;10.31;82.86
5126;BME280;63008;53.112;8.896;2023-05-24T04:44:39;102050.94;;;10.42;82.53
5126;BME280;63008;53.112;8.896;2023-05-24T04:46:40;102056.94;;;10.44;82.20
5126;BME280;63008;53.112;8.896;2023-05-24T04:48:41;102055.00;;;10.45;81.59
5126;BME280;63008;53.112;8.896;2023-05-24T04:50:42;102057.56;;;10.41;81.85
5126;BME280;63008;53.112;8.896;2023-05-24T04:52:43;102059.19;;;10.42;81.61
5126;BME280;63008;53.112;8.896;2023-05-24T04:54:44;102058.66;;;10.40;82.48
5126;BME280;63008;53.112;8.896;2023-05-24T04:56:45;102058.34;;;10.42;82.64
5126;BME280;63008;53.112;8.896;2023-05-24T04:58:46;102059.78;;;10.39;82.91
5126;BME280;63008;53.112;8.896;2023-05-24T05:00:47;102057.56;;;10.41;82.84
5126;BME280;63008;53.112;8.896;2023-05-24T05:02:48;102061.19;;;10.37;82.56
5126;BME280;63008;53.112;8.896;2023-05-24T05:04:49;102065.19;;;10.44;82.28
5126;BME280;63008;53.112;8.896;2023-05-24T05:06:51;102063.75;;;10.47;82.56
5126;BME280;63008;53.112;8.896;2023-05-24T05:08:52;102060.28;;;10.41;83.13
5126;BME280;63008;53.112;8.896;2023-05-24T05:10:53;102065.34;;;10.34;83.84
5126;BME280;63008;53.112;8.896;2023-05-24T05:12:54;102067.78;;;10.36;84.79
5126;BME280;63008;53.112;8.896;2023-05-24T05:14:55;102064.91;;;10.27;85.55
5126;BME280;63008;53.112;8.896;2023-05-24T05:16:55;102072.13;;;10.23;86.46
5126;BME280;63008;53.112;8.896;2023-05-24T05:18:57;102078.19;;;10.20;86.84
5126;BME280;63008;53.112;8.896;2023-05-24T05:20:58;102078.59;;;10.14;88.28
5126;BME280;63008;53.112;8.896;2023-05-24T05:22:59;102076.81;;;10.04;88.59
5126;BME280;63008;53.112;8.896;2023-05-24T05:25:00;102073.25;;;10.04;89.02
5126;BME280;63008;53.112;8.896;2023-05-24T05:27:01;102074.59;;;10.06;89.06
5126;BME280;63008;53.112;8.896;2023-05-24T05:29:02;102077.16;;;9.98;89.62
5126;BME280;63008;53.112;8.896;2023-05-24T05:31:03;102077.38;;;10.01;89.80
5126;BME280;63008;53.112;8.896;2023-05-24T05:33:04;102076.56;;;10.01;90.52
5126;BME280;63008;53.112;8.896;2023-05-24T05:35:06;102075.16;;;10.03;90.63
5126;BME280;63008;53.112;8.896;2023-05-24T05:37:07;102064.50;;;10.02;89.83
5126;BME280;63008;53.112;8.896;2023-05-24T05:39:08;102068.41;;;9.96;90.28
5126;BME280;63008;53.112;8.896;2023-05-24T05:41:09;102070.78;;;10.02;90.84
5126;BME280;63008;53.112;8.896;2023-05-24T05:43:10;102066.41;;;10.01;91.34
5126;BME280;63008;53.112;8.896;2023-05-24T05:45:11;102071.91;;;10.01;92.17
5126;BME280;63008;53.112;8.896;2023-05-24T05:47:12;102073.66;;;10.11;91.71
5126;BME280;63008;53.112;8.896;2023-05-24T05:49:14;102077.16;;;10.16;91.04
5126;BME280;63008;53.112;8.896;2023-05-24T05:51:15;102072.13;;;10.23;91.47
5126;BME280;63008;53.112;8.896;2023-05-24T05:53:16;102078.13;;;10.25;91.88
5126;BME280;63008;53.112;8.896;2023-05-24T05:55:17;102073.06;;;10.32;91.06
5126;BME280;63008;53.112;8.896;2023-05-24T05:57:18;102076.91;;;10.31;90.60
5126;BME280;63008;53.112;8.896;2023-05-24T05:59:23;102075.44;;;10.20;90.99
5126;BME280;63008;53.112;8.896;2023-05-24T06:01:27;102082.69;;;10.30;91.67
5126;BME280;63008;53.112;8.896;2023-05-24T06:03:47;102075.19;;;10.35;92.53
5126;BME280;63008;53.112;8.896;2023-05-24T06:05:48;102079.00;;;10.39;91.71
5126;BME280;63008;53.112;8.896;2023-05-24T06:07:48;102079.78;;;10.40;91.85
5126;BME280;63008;53.112;8.896;2023-05-24T06:09:49;102079.50;;;10.41;92.03
5126;BME280;63008;53.112;8.896;2023-05-24T06:11:50;102087.22;;;10.39;91.84
5126;BME280;63008;53.112;8.896;2023-05-24T06:13:52;102092.88;;;10.29;92.29
5126;BME280;63008;53.112;8.896;2023-05-24T06:15:53;102087.50;;;10.38;92.50
5126;BME280;63008;53.112;8.896;2023-05-24T06:17:54;102092.91;;;10.43;92.42
5126;BME280;63008;53.112;8.896;2023-05-24T06:19:55;102097.09;;;10.40;91.90
5126;BME280;63008;53.112;8.896;2023-05-24T06:21:56;102105.31;;;10.40;92.40
5126;BME280;63008;53.112;8.896;2023-05-24T06:23:57;102097.38;;;10.39;92.80
5126;BME280;63008;53.112;8.896;2023-05-24T06:25:59;102104.22;;;10.41;93.22
5126;BME280;63008;53.112;8.896;2023-05-24T06:28:01;102103.75;;;10.34;92.54
5126;BME280;63008;53.112;8.896;2023-05-24T06:30:02;102106.34;;;10.44;92.76
5126;BME280;63008;53.112;8.896;2023-05-24T06:32:03;102112.56;;;10.50;92.94
5126;BME280;63008;53.112;8.896;2023-05-24T06:34:05;102110.53;;;10.55;92.61
5126;BME280;63008;53.112;8.896;2023-05-24T06:36:06;102121.84;;;10.54;92.67
5126;BME280;63008;53.112;8.896;2023-05-24T06:38:07;102110.53;;;10.55;91.79
5126;BME280;63008;53.112;8.896;2023-05-24T06:40:08;102116.03;;;10.55;92.25
5126;BME280;63008;53.112;8.896;2023-05-24T06:42:09;102123.94;;;10.43;93.43
5126;BME280;63008;53.112;8.896;2023-05-24T06:44:10;102123.84;;;10.48;93.61
5126;BME280;63008;53.112;8.896;2023-05-24T06:46:11;102121.31;;;10.52;93.66
5126;BME280;63008;53.112;8.896;2023-05-24T06:48:12;102125.88;;;10.56;93.61
5126;BME280;63008;53.112;8.896;2023-05-24T06:50:13;102122.06;;;10.57;93.73
5126;BME280;63008;53.112;8.896;2023-05-24T06:52:15;102114.75;;;10.66;92.96
5126;BME280;63008;53.112;8.896;2023-05-24T06:54:16;102112.13;;;10.75;92.65
5126;BME280;63008;53.112;8.896;2023-05-24T06:56:18;102119.56;;;10.74;92.70
5126;BME280;63008;53.112;8.896;2023-05-24T06:58:19;102118.44;;;10.75;92.76
5126;BME280;63008;53.112;8.896;2023-05-24T07:00:20;102118.63;;;10.79;92.25
5126;BME280;63008;53.112;8.896;2023-05-24T07:02:21;102116.22;;;10.77;92.17
5126;BME280;63008;53.112;8.896;2023-05-24T07:04:28;102119.38;;;10.84;91.94
5126;BME280;63008;53.112;8.896;2023-05-24T07:06:29;102115.22;;;10.87;91.85
5126;BME280;63008;53.112;8.896;2023-05-24T07:08:30;102117.13;;;10.86;91.94
5126;BME280;63008;53.112;8.896;2023-05-24T07:10:31;102126.22;;;10.87;91.72
5126;BME280;63008;53.112;8.896;2023-05-24T07:12:32;102129.97;;;10.90;91.60
5126;BME280;63008;53.112;8.896;2023-05-24T07:14:32;102133.84;;;10.89;92.52
5126;BME280;63008;53.112;8.896;2023-05-24T07:16:33;102134.06;;;10.93;92.14
5126;BME280;63008;53.112;8.896;2023-05-24T07:18:34;102146.66;;;10.94;92.85
5126;BME280;63008;53.112;8.896;2023-05-24T07:20:35;102144.63;;;10.99;92.31
5126;BME280;63008;53.112;8.896;2023-05-24T07:22:36;102145.97;;;11.02;92.24
5126;BME280;63008;53.112;8.896;2023-05-24T07:24:37;102147.69;;;10.98;91.86
5126;BME280;63008;53.112;8.896;2023-05-24T07:26:38;102143.53;;;11.00;91.67
5126;BME280;63008;53.112;8.896;2023-05-24T07:28:42;102142.00;;;11.08;90.48
5126;BME280;63008;53.112;8.896;2023-05-24T07:30:43;102136.81;;;11.06;90.97
5126;BME280;63008;53.112;8.896;2023-05-24T07:32:44;102144.22;;;11.06;91.47
5126;BME280;63008;53.112;8.896;2023-05-24T07:34:45;102138.34;;;11.12;90.40
5126;BME280;63008;53.112;8.896;2023-05-24T07:36:46;102143.44;;;11.05;90.08
5126;BME280;63008;53.112;8.896;2023-05-24T07:38:48;102140.38;;;11.07;90.64
5126;BME280;63008;53.112;8.896;2023-05-24T07:40:49;102136.94;;;11.15;90.45
5126;BME280;63008;53.112;8.896;2023-05-24T07:42:50;102144.84;;;11.16;89.99
5126;BME280;63008;53.112;8.896;2023-05-24T07:44:51;102149.16;;;11.22;88.87
5126;BME280;63008;53.112;8.896;2023-05-24T07:46:52;102147.94;;;11.28;89.47
5126;BME280;63008;53.112;8.896;2023-05-24T07:48:54;102149.34;;;11.26;88.85
5126;BME280;63008;53.112;8.896;2023-05-24T07:50:55;102159.31;;;11.22;90.96
5126;BME280;63008;53.112;8.896;2023-05-24T07:52:56;102161.47;;;11.25;90.26
5126;BME280;63008;53.112;8.896;2023-05-24T07:54:57;102155.88;;;11.30;89.98
5126;BME280;63008;53.112;8.896;2023-05-24T07:56:58;102167.50;;;11.40;89.35
5126;BME280;63008;53.112;8.896;2023-05-24T07:58:59;102163.13;;;11.39;89.25
5126;BME280;63008;53.112;8.896;2023-05-24T08:01:04;102168.41;;;11.49;89.69
5126;BME280;63008;53.112;8.896;2023-05-24T08:03:05;102164.34;;;11.47;89.98
5126;BME280;63008;53.112;8.896;2023-05-24T08:05:07;102167.09;;;11.47;89.68
5126;BME280;63008;53.112;8.896;2023-05-24T08:07:09;102163.03;;;11.58;90.42
5126;BME280;63008;53.112;8.896;2023-05-24T08:09:10;102168.75;;;11.61;89.80
5126;BME280;63008;53.112;8.896;2023-05-24T08:11:11;102160.41;;;11.80;89.21
5126;BME280;63008;53.112;8.896;2023-05-24T08:13:12;102172.81;;;11.91;89.07
5126;BME280;63008;53.112;8.896;2023-05-24T08:15:13;102165.28;;;11.83;89.29
5126;BME280;63008;53.112;8.896;2023-05-24T08:17:14;102163.03;;;11.85;88.90
5126;BME280;63008;53.112;8.896;2023-05-24T08:19:15;102159.97;;;11.86;88.69
5126;BME280;63008;53.112;8.896;2023-05-24T08:21:16;102165.38;;;11.91;89.16
5126;BME280;63008;53.112;8.896;2023-05-24T08:23:17;102167.41;;;11.86;89.20
5126;BME280;63008;53.112;8.896;2023-05-24T08:25:18;102165.28;;;11.83;88.96
5126;BME280;63008;53.112;8.896;2023-05-24T08:27:20;102166.19;;;11.92;89.10
5126;BME280;63008;53.112;8.896;2023-05-24T08:29:22;102170.66;;;11.88;88.41
5126;BME280;63008;53.112;8.896;2023-05-24T08:31:23;102172.91;;;11.86;88.66
5126;BME280;63008;53.112;8.896;2023-05-24T08:33:24;102167.53;;;11.81;89.00
5126;BME280;63008;53.112;8.896;2023-05-24T08:35:25;102172.91;;;11.86;89.04
5126;BME280;63008;53.112;8.896;2023-05-24T08:37:26;102175.88;;;11.89;89.81
5126;BME280;63008;53.112;8.896;2023-05-24T08:39:28;102188.19;;;11.92;89.49
5126;BME280;63008;53.112;8.896;2023-05-24T08:41:29;102181.47;;;11.98;90.47
5126;BME280;63008;53.112;8.896;2023-05-24T08:43:32;102180.53;;;12.02;89.11
5126;BME280;63008;53.112;8.896;2023-05-24T08:45:35;102188.19;;;11.92;89.87
5126;BME280;63008;53.112;8.896;2023-05-24T08:47:37;102196.56;;;11.87;90.01
5126;BME280;63008;53.112;8.896;2023-05-24T08:49:40;102194.09;;;11.99;89.36
5126;BME280;63008;53.112;8.896;2023-05-24T08:51:42;102190.94;;;11.92;89.60
5126;BME280;63008;53.112;8.896;2023-05-24T08:53:44;102196.53;;;12.00;90.34
5126;BME280;63008;53.112;8.896;2023-05-24T08:55:49;102191.84;;;11.87;89.15
5126;BME280;63008;53.112;8.896;2023-05-24T08:57:54;102202.25;;;11.77;90.04
5126;BME280;63008;53.112;8.896;2023-05-24T08:59:58;102196.97;;;11.80;91.05
5126;BME280;63008;53.112;8.896;2023-05-24T09:02:00;102187.91;;;11.93;91.81
5126;BME280;63008;53.112;8.896;2023-05-24T09:04:03;102191.16;;;11.95;92.30
5126;BME280;63008;53.112;8.896;2023-05-24T09:06:06;102195.31;;;11.93;92.16
5126;BME280;63008;53.112;8.896;2023-05-24T09:08:09;102196.25;;;12.02;92.33
5126;BME280;63008;53.112;8.896;2023-05-24T09:10:10;102202.00;;;12.14;90.94
5126;BME280;63008;53.112;8.896;2023-05-24T09:12:15;102198.91;;;12.42;90.77
5126;BME280;63008;53.112;8.896;2023-05-24T09:14:17;102199.84;;;12.60;88.78
5126;BME280;63008;53.112;8.896;2023-05-24T09:16:18;102202.81;;;12.63;87.16
5126;BME280;63008;53.112;8.896;2023-05-24T09:18:19;102194.28;;;12.73;86.32
5126;BME280;63008;53.112;8.896;2023-05-24T09:20:20;102202.31;;;12.83;87.04
5126;BME280;63008;53.112;8.896;2023-05-24T09:22:24;102200.81;;;12.77;86.48
5126;BME280;63008;53.112;8.896;2023-05-24T09:24:25;102203.66;;;12.85;85.07
5126;BME280;63008;53.112;8.896;2023-05-24T09:26:26;102205.78;;;12.88;85.29
5126;BME280;63008;53.112;8.896;2023-05-24T09:28:31;102208.53;;;12.88;85.39
5126;BME280;63008;53.112;8.896;2023-05-24T09:30:32;102204.59;;;13.03;85.88
5126;BME280;63008;53.112;8.896;2023-05-24T09:32:33;102211.97;;;13.16;83.97
5126;BME280;63008;53.112;8.896;2023-05-24T09:34:41;102213.47;;;13.22;83.57
5126;BME280;63008;53.112;8.896;2023-05-24T09:36:45;102219.28;;;13.20;84.10
5126;BME280;63008;53.112;8.896;2023-05-24T09:38:46;102211.75;;;13.34;83.35
5126;BME280;63008;53.112;8.896;2023-05-24T09:40:57;102213.88;;;13.37;83.13
5126;BME280;63008;53.112;8.896;2023-05-24T09:43:03;102216.50;;;13.42;82.63
5126;BME280;63008;53.112;8.896;2023-05-24T09:45:07;102204.28;;;13.65;80.90
5126;BME280;63008;53.112;8.896;2023-05-24T09:47:08;102207.91;;;13.74;80.19
5126;BME280;63008;53.112;8.896;2023-05-24T09:49:12;102205.75;;;13.71;80.07
5126;BME280;63008;53.112;8.896;2023-05-24T09:51:12;102218.06;;;13.65;80.43
5126;BME280;63008;53.112;8.896;2023-05-24T09:53:16;102219.66;;;13.58;80.09
5126;BME280;63008;53.112;8.896;2023-05-24T09:55:18;102223.91;;;13.64;80.88
5126;BME280;63008;53.112;8.896;2023-05-24T09:57:20;102221.84;;;13.78;80.15
5126;BME280;63008;53.112;8.896;2023-05-24T09:59:24;102216.00;;;13.71;80.53
5126;BME280;63008;53.112;8.896;2023-05-24T10:01:25;102221.88;;;13.86;79.52
5126;BME280;63008;53.112;8.896;2023-05-24T10:03:27;102220.72;;;13.79;81.53
5126;BME280;63008;53.112;8.896;2023-05-24T10:05:29;102226.91;;;13.84;79.77
5126;BME280;63008;53.112;8.896;2023-05-24T10:07:32;102231.56;;;13.67;79.76
5126;BME280;63008;53.112;8.896;2023-05-24T10:09:34;102219.00;;;13.91;79.39
5126;BME280;63008;53.112;8.896;2023-05-24T10:11:36;102213.66;;;14.03;78.75
5126;BME280;63008;53.112;8.896;2023-05-24T10:13:38;102222.91;;;14.07;78.35
5126;BME280;63008;53.112;8.896;2023-05-24T10:15:39;102219.66;;;14.05;79.14
5126;BME280;63008;53.112;8.896;2023-05-24T10:17:40;102221.28;;;14.06;78.32
5126;BME280;63008;53.112;8.896;2023-05-24T10:19:41;102208.63;;;14.14;77.09
5126;BME280;63008;53.112;8.896;2023-05-24T10:21:43;102213.72;;;14.20;76.47
5126;BME280;63008;53.112;8.896;2023-05-24T10:23:50;102218.81;;;14.52;77.19
5126;BME280;63008;53.112;8.896;2023-05-24T10:25:55;102221.75;;;14.89;76.40
5126;BME280;63008;53.112;8.896;2023-05-24T10:28:03;102219.59;;;15.03;74.20
5126;BME280;63008;53.112;8.896;2023-05-24T10:30:25;102216.47;;;15.22;72.13
5126;BME280;63008;53.112;8.896;2023-05-24T10:32:32;102212.41;;;15.19;72.42
5126;BME280;63008;53.112;8.896;2023-05-24T10:34:34;102218.16;;;14.97;72.97
5126;BME280;63008;53.112;8.896;2023-05-24T10:36:37;102211.97;;;15.00;72.88
5126;BME280;63008;53.112;8.896;2023-05-24T10:38:40;102220.44;;;14.95;72.46
5126;BME280;63008;53.112;8.896;2023-05-24T10:40:41;102221.22;;;14.96;72.04
5126;BME280;63008;53.112;8.896;2023-05-24T10:42:43;102225.13;;;14.86;74.27
5126;BME280;63008;53.112;8.896;2023-05-24T10:44:44;102224.16;;;14.82;73.54
5126;BME280;63008;53.112;8.896;2023-05-24T10:49:12;102217.50;;;14.83;72.58
5126;BME280;63008;53.112;8.896;2023-05-24T10:51:35;102223.38;;;14.73;74.36
5126;BME280;63008;53.112;8.896;2023-05-24T10:53:38;102227.59;;;14.71;72.56
5126;BME280;63008;53.112;8.896;2023-05-24T10:57:59;102226.13;;;14.65;72.43
5126;BME280;63008;53.112;8.896;2023-05-24T11:00:26;102228.25;;;14.51;74.09
5126;BME280;63008;53.112;8.896;2023-05-24T11:02:33;102237.19;;;14.57;72.41
5126;BME280;63008;53.112;8.896;2023-05-24T11:04:39;102227.06;;;14.35;74.20
5126;BME280;63008;53.112;8.896;2023-05-24T11:08:47;102233.00;;;14.12;75.84
5126;BME280;63008;53.112;8.896;2023-05-24T11:10:49;102230.63;;;14.19;73.86